DAL4187 KMRY-KDEN
Flight info
| Callsign | DAL4187 |
|---|---|
| Flight time | 2h 2m |
| Altitude | 37000 |
| Route | SNS PXN NTELL OAL KATTS KITTN BUMMP SSKII4 |
| Aircraft | B738/M-SDE2E3FGHIRWXY/LB1 |
Departure
| Time | 2026-04-22 17:19 |
|---|---|
| Airport | Monterey Regional Airport (KMRY) |
Arrival
| Time | 2026-04-22 19:22 |
|---|---|
| Airport | Denver International Airport (KDEN) |
| Time | Latitude | Longitude | Altitude | Speed | Heading |
|---|---|---|---|---|---|
| 2026-04-22 16:49 | 36.58674 | -121.84800 | 193 ft | 0 kts | 233° |
| 2026-04-22 17:04 | 36.58675 | -121.84800 | 193 ft | 0 kts | 233° |
| 2026-04-22 17:05 | 36.58681 | -121.84789 | 193 ft | 2 kts | 233° |
| 2026-04-22 17:05 | 36.58689 | -121.84774 | 193 ft | 2 kts | 234° |
| 2026-04-22 17:05 | 36.58699 | -121.84759 | 193 ft | 2 kts | 234° |
| 2026-04-22 17:06 | 36.58708 | -121.84744 | 192 ft | 2 kts | 239° |
| 2026-04-22 17:06 | 36.58711 | -121.84725 | 193 ft | 2 kts | 276° |
| 2026-04-22 17:06 | 36.58710 | -121.84715 | 193 ft | 1 kts | 294° |
| 2026-04-22 17:06 | 36.58707 | -121.84708 | 193 ft | 0 kts | 292° |
| 2026-04-22 17:12 | 36.58708 | -121.84712 | 193 ft | 2 kts | 292° |
| 2026-04-22 17:12 | 36.58737 | -121.84749 | 191 ft | 9 kts | 357° |
| 2026-04-22 17:12 | 36.58770 | -121.84676 | 188 ft | 12 kts | 105° |
| 2026-04-22 17:12 | 36.58718 | -121.84586 | 195 ft | 13 kts | 173° |
| 2026-04-22 17:13 | 36.58659 | -121.84576 | 201 ft | 6 kts | 145° |
| 2026-04-22 17:13 | 36.58621 | -121.84494 | 207 ft | 12 kts | 112° |
| 2026-04-22 17:13 | 36.58594 | -121.84412 | 214 ft | 9 kts | 112° |
| 2026-04-22 17:13 | 36.58569 | -121.84338 | 220 ft | 10 kts | 113° |
| 2026-04-22 17:14 | 36.58535 | -121.84239 | 229 ft | 14 kts | 113° |
| 2026-04-22 17:14 | 36.58492 | -121.84115 | 238 ft | 17 kts | 114° |
| 2026-04-22 17:14 | 36.58438 | -121.83967 | 247 ft | 16 kts | 114° |
| 2026-04-22 17:14 | 36.58398 | -121.83852 | 252 ft | 11 kts | 113° |
| 2026-04-22 17:15 | 36.58374 | -121.83783 | 253 ft | 16 kts | 113° |
| 2026-04-22 17:15 | 36.58302 | -121.83585 | 249 ft | 20 kts | 115° |
| 2026-04-22 17:15 | 36.58282 | -121.83411 | 238 ft | 18 kts | 79° |
| 2026-04-22 17:15 | 36.58332 | -121.83366 | 235 ft | 5 kts | 314° |
| 2026-04-22 17:16 | 36.58337 | -121.83375 | 236 ft | 0 kts | 291° |
| 2026-04-22 17:16 | 36.58338 | -121.83378 | 236 ft | 4 kts | 291° |
| 2026-04-22 17:16 | 36.58398 | -121.83563 | 247 ft | 42 kts | 292° |
| 2026-04-22 17:16 | 36.58564 | -121.84074 | 233 ft | 84 kts | 290° |
| 2026-04-22 17:17 | 36.58843 | -121.84895 | 183 ft | 121 kts | 292° |
| 2026-04-22 17:17 | 36.59213 | -121.85971 | 155 ft | 145 kts | 292° |
| 2026-04-22 17:17 | 36.59607 | -121.87141 | 245 ft | 141 kts | 291° |
| 2026-04-22 17:17 | 36.59928 | -121.88277 | 303 ft | 145 kts | 283° |
| 2026-04-22 17:18 | 36.60203 | -121.89521 | 376 ft | 147 kts | 294° |
| 2026-04-22 17:18 | 36.60754 | -121.90593 | 358 ft | 161 kts | 313° |
| 2026-04-22 17:18 | 36.61591 | -121.91476 | 590 ft | 153 kts | 327° |
| 2026-04-22 17:18 | 36.62516 | -121.92132 | 755 ft | 153 kts | 334° |
| 2026-04-22 17:19 | 36.64531 | -121.93399 | 1025 ft | 160 kts | 327° |
| 2026-04-22 17:19 | 36.65021 | -121.95933 | 1162 ft | 170 kts | 251° |
| 2026-04-22 17:20 | 36.65108 | -121.98830 | 1920 ft | 193 kts | 313° |
| 2026-04-22 17:20 | 36.67699 | -122.00297 | 2635 ft | 220 kts | 341° |
| 2026-04-22 17:21 | 36.69203 | -122.00895 | 2990 ft | 233 kts | 340° |
| 2026-04-22 17:21 | 36.72496 | -122.01009 | 3891 ft | 255 kts | 29° |
| 2026-04-22 17:22 | 36.74470 | -121.97266 | 4761 ft | 277 kts | 83° |
| 2026-04-22 17:22 | 36.74389 | -121.94858 | 5318 ft | 281 kts | 103° |
| 2026-04-22 17:22 | 36.73257 | -121.90180 | 6551 ft | 288 kts | 108° |
| 2026-04-22 17:23 | 36.72665 | -121.87798 | 7206 ft | 290 kts | 107° |
| 2026-04-22 17:23 | 36.71531 | -121.82912 | 8482 ft | 298 kts | 105° |
| 2026-04-22 17:23 | 36.70972 | -121.80441 | 9046 ft | 304 kts | 105° |
| 2026-04-22 17:24 | 36.70389 | -121.77868 | 9715 ft | 307 kts | 105° |
| 2026-04-22 17:24 | 36.69804 | -121.75286 | 10289 ft | 314 kts | 105° |
| 2026-04-22 17:24 | 36.69194 | -121.72588 | 10525 ft | 333 kts | 105° |
| 2026-04-22 17:24 | 36.68560 | -121.69772 | 10857 ft | 348 kts | 105° |
| 2026-04-22 17:25 | 36.67897 | -121.66835 | 11431 ft | 354 kts | 105° |
| 2026-04-22 17:25 | 36.67219 | -121.63850 | 11970 ft | 362 kts | 105° |
| 2026-04-22 17:25 | 36.66597 | -121.60796 | 12615 ft | 367 kts | 100° |
| 2026-04-22 17:25 | 36.66360 | -121.57622 | 13224 ft | 371 kts | 88° |
| 2026-04-22 17:26 | 36.66489 | -121.54382 | 13784 ft | 377 kts | 82° |
| 2026-04-22 17:26 | 36.66780 | -121.51131 | 14425 ft | 381 kts | 80° |
| 2026-04-22 17:26 | 36.67100 | -121.47841 | 15175 ft | 383 kts | 80° |
| 2026-04-22 17:26 | 36.67396 | -121.44552 | 15741 ft | 390 kts | 81° |
| 2026-04-22 17:27 | 36.67665 | -121.41147 | 16384 ft | 395 kts | 82° |
| 2026-04-22 17:27 | 36.67904 | -121.37749 | 17013 ft | 399 kts | 82° |
| 2026-04-22 17:27 | 36.68133 | -121.34257 | 17572 ft | 405 kts | 83° |
| 2026-04-22 17:27 | 36.68355 | -121.30771 | 18146 ft | 409 kts | 83° |
| 2026-04-22 17:28 | 36.68578 | -121.27207 | 18719 ft | 414 kts | 84° |
| 2026-04-22 17:28 | 36.68799 | -121.23633 | 19202 ft | 420 kts | 83° |
| 2026-04-22 17:28 | 36.69024 | -121.20014 | 19741 ft | 425 kts | 84° |
| 2026-04-22 17:28 | 36.69255 | -121.16338 | 20282 ft | 428 kts | 84° |
| 2026-04-22 17:29 | 36.69492 | -121.12585 | 20788 ft | 433 kts | 84° |
| 2026-04-22 17:29 | 36.69727 | -121.08859 | 21270 ft | 438 kts | 84° |
| 2026-04-22 17:29 | 36.69965 | -121.05029 | 21799 ft | 441 kts | 84° |
| 2026-04-22 17:29 | 36.70198 | -121.01233 | 22263 ft | 446 kts | 84° |
| 2026-04-22 17:30 | 36.70434 | -120.97365 | 22697 ft | 451 kts | 84° |
| 2026-04-22 17:30 | 36.70672 | -120.93494 | 23147 ft | 455 kts | 84° |
| 2026-04-22 17:30 | 36.70911 | -120.89566 | 23613 ft | 459 kts | 85° |
| 2026-04-22 17:30 | 36.71150 | -120.85561 | 24057 ft | 463 kts | 85° |
| 2026-04-22 17:31 | 36.71395 | -120.81564 | 24460 ft | 468 kts | 84° |
| 2026-04-22 17:31 | 36.71753 | -120.77545 | 24909 ft | 470 kts | 80° |
| 2026-04-22 17:31 | 36.72361 | -120.73537 | 25331 ft | 474 kts | 75° |
| 2026-04-22 17:31 | 36.73133 | -120.69517 | 25741 ft | 477 kts | 73° |
| 2026-04-22 17:32 | 36.73988 | -120.65514 | 26168 ft | 480 kts | 72° |
| 2026-04-22 17:32 | 36.74876 | -120.61536 | 26585 ft | 484 kts | 72° |
| 2026-04-22 17:32 | 36.75795 | -120.57458 | 26984 ft | 487 kts | 72° |
| 2026-04-22 17:32 | 36.76691 | -120.53422 | 27405 ft | 490 kts | 72° |
| 2026-04-22 17:33 | 36.77291 | -120.50671 | 27617 ft | 493 kts | 72° |
| 2026-04-22 17:33 | 36.78476 | -120.45155 | 28162 ft | 497 kts | 73° |
| 2026-04-22 17:33 | 36.79362 | -120.40967 | 28535 ft | 500 kts | 73° |
| 2026-04-22 17:33 | 36.80236 | -120.36793 | 28913 ft | 503 kts | 73° |
| 2026-04-22 17:34 | 36.81119 | -120.32541 | 29259 ft | 506 kts | 74° |
| 2026-04-22 17:34 | 36.82003 | -120.28276 | 29590 ft | 509 kts | 74° |
| 2026-04-22 17:34 | 36.82890 | -120.23975 | 29889 ft | 513 kts | 74° |
| 2026-04-22 17:34 | 36.83778 | -120.19668 | 30219 ft | 515 kts | 74° |
| 2026-04-22 17:35 | 36.84674 | -120.15314 | 30514 ft | 518 kts | 74° |
| 2026-04-22 17:35 | 36.85562 | -120.10981 | 30802 ft | 521 kts | 74° |
| 2026-04-22 17:35 | 36.86466 | -120.06564 | 31110 ft | 524 kts | 74° |
| 2026-04-22 17:35 | 36.87365 | -120.02163 | 31352 ft | 528 kts | 74° |
| 2026-04-22 17:36 | 36.88273 | -119.97733 | 31662 ft | 530 kts | 73° |
| 2026-04-22 17:36 | 36.89243 | -119.93306 | 31927 ft | 532 kts | 71° |
| 2026-04-22 17:36 | 36.90444 | -119.88960 | 32146 ft | 534 kts | 65° |
| 2026-04-22 17:36 | 36.91981 | -119.84749 | 32446 ft | 532 kts | 58° |
| 2026-04-22 17:37 | 36.93808 | -119.80750 | 32886 ft | 527 kts | 53° |
| 2026-04-22 17:37 | 36.95798 | -119.76945 | 33307 ft | 523 kts | 50° |
| 2026-04-22 17:37 | 36.97867 | -119.73257 | 33641 ft | 523 kts | 48° |
| 2026-04-22 17:37 | 37.00013 | -119.69531 | 33982 ft | 523 kts | 48° |
| 2026-04-22 17:38 | 37.02137 | -119.65848 | 34269 ft | 524 kts | 48° |
| 2026-04-22 17:38 | 37.04245 | -119.62140 | 34654 ft | 522 kts | 49° |
| 2026-04-22 17:38 | 37.06304 | -119.58449 | 34973 ft | 522 kts | 49° |
| 2026-04-22 17:38 | 37.08337 | -119.54739 | 35278 ft | 522 kts | 50° |
| 2026-04-22 17:39 | 37.10371 | -119.50971 | 35603 ft | 521 kts | 50° |
| 2026-04-22 17:39 | 37.12398 | -119.47175 | 35946 ft | 519 kts | 50° |
| 2026-04-22 17:39 | 37.16362 | -119.39709 | 36643 ft | 518 kts | 50° |
| 2026-04-22 17:40 | 37.18345 | -119.35967 | 36986 ft | 517 kts | 51° |
| 2026-04-22 17:40 | 37.20345 | -119.32179 | 37163 ft | 519 kts | 51° |
| 2026-04-22 17:40 | 37.22315 | -119.28442 | 37176 ft | 520 kts | 51° |
| 2026-04-22 17:41 | 37.26283 | -119.20897 | 37140 ft | 516 kts | 51° |
| 2026-04-22 17:41 | 37.30202 | -119.13424 | 37132 ft | 515 kts | 51° |
| 2026-04-22 17:42 | 37.34155 | -119.05889 | 37104 ft | 518 kts | 51° |
| 2026-04-22 17:42 | 37.38090 | -118.98373 | 37071 ft | 516 kts | 51° |
| 2026-04-22 17:43 | 37.42033 | -118.90838 | 37083 ft | 517 kts | 51° |
| 2026-04-22 17:43 | 37.45978 | -118.83290 | 37076 ft | 516 kts | 51° |
| 2026-04-22 17:44 | 37.49896 | -118.75782 | 37085 ft | 516 kts | 51° |
| 2026-04-22 17:44 | 37.53811 | -118.68221 | 37083 ft | 514 kts | 52° |
| 2026-04-22 17:45 | 37.57708 | -118.60697 | 37103 ft | 514 kts | 51° |
| 2026-04-22 17:45 | 37.61593 | -118.53188 | 37122 ft | 515 kts | 51° |
| 2026-04-22 17:46 | 37.65493 | -118.45647 | 37129 ft | 517 kts | 52° |
| 2026-04-22 17:46 | 37.69391 | -118.38081 | 37088 ft | 513 kts | 52° |
| 2026-04-22 17:47 | 37.73271 | -118.30500 | 37064 ft | 515 kts | 52° |
| 2026-04-22 17:47 | 37.77139 | -118.22957 | 36984 ft | 514 kts | 52° |
| 2026-04-22 17:48 | 37.80377 | -118.16632 | 37085 ft | 513 kts | 52° |
| 2026-04-22 17:48 | 37.84852 | -118.07836 | 37042 ft | 513 kts | 53° |
| 2026-04-22 17:49 | 37.88709 | -118.00222 | 37091 ft | 513 kts | 52° |
| 2026-04-22 17:49 | 37.92533 | -117.92668 | 37083 ft | 512 kts | 53° |
| 2026-04-22 17:50 | 37.96348 | -117.85104 | 37096 ft | 513 kts | 53° |
| 2026-04-22 17:50 | 37.99738 | -117.77106 | 37090 ft | 516 kts | 63° |
| 2026-04-22 17:51 | 38.02328 | -117.68671 | 37131 ft | 519 kts | 69° |
| 2026-04-22 17:51 | 38.04480 | -117.59993 | 37099 ft | 518 kts | 71° |
| 2026-04-22 17:52 | 38.06539 | -117.51172 | 37101 ft | 519 kts | 72° |
| 2026-04-22 17:52 | 38.08552 | -117.42455 | 37113 ft | 519 kts | 71° |
| 2026-04-22 17:53 | 38.10584 | -117.33675 | 37089 ft | 517 kts | 72° |
| 2026-04-22 17:53 | 38.12617 | -117.24893 | 37099 ft | 520 kts | 72° |
| 2026-04-22 17:54 | 38.14646 | -117.16122 | 37115 ft | 518 kts | 72° |
| 2026-04-22 17:54 | 38.16647 | -117.07384 | 37135 ft | 519 kts | 72° |
| 2026-04-22 17:55 | 38.18668 | -116.98630 | 37118 ft | 518 kts | 72° |
| 2026-04-22 17:55 | 38.20702 | -116.89815 | 37089 ft | 518 kts | 72° |
| 2026-04-22 17:56 | 38.22720 | -116.81025 | 37102 ft | 521 kts | 72° |
| 2026-04-22 17:56 | 38.24733 | -116.72239 | 37077 ft | 520 kts | 73° |
| 2026-04-22 17:57 | 38.26693 | -116.63444 | 37076 ft | 520 kts | 72° |
| 2026-04-22 17:57 | 38.28668 | -116.54617 | 37091 ft | 522 kts | 73° |
| 2026-04-22 17:58 | 38.30659 | -116.45768 | 37095 ft | 522 kts | 72° |
| 2026-04-22 17:58 | 38.32505 | -116.36841 | 37099 ft | 522 kts | 80° |
| 2026-04-22 17:59 | 38.33273 | -116.27682 | 37119 ft | 521 kts | 88° |
| 2026-04-22 17:59 | 38.33456 | -116.18490 | 37111 ft | 523 kts | 92° |
| 2026-04-22 18:00 | 38.33463 | -116.10792 | 37132 ft | 521 kts | 92° |
| 2026-04-22 18:00 | 38.33444 | -116.00075 | 37124 ft | 522 kts | 91° |
| 2026-04-22 18:01 | 38.33424 | -115.90833 | 37116 ft | 523 kts | 92° |
| 2026-04-22 18:01 | 38.33391 | -115.81619 | 37156 ft | 523 kts | 92° |
| 2026-04-22 18:02 | 38.33400 | -115.72373 | 37122 ft | 523 kts | 91° |
| 2026-04-22 18:02 | 38.33438 | -115.63140 | 37111 ft | 523 kts | 92° |
| 2026-04-22 18:03 | 38.33441 | -115.53931 | 37124 ft | 525 kts | 92° |
| 2026-04-22 18:03 | 38.33354 | -115.44651 | 37122 ft | 525 kts | 93° |
| 2026-04-22 18:04 | 38.33268 | -115.35370 | 37119 ft | 524 kts | 92° |
| 2026-04-22 18:04 | 38.33224 | -115.26108 | 37114 ft | 525 kts | 93° |
| 2026-04-22 18:05 | 38.33170 | -115.16826 | 37089 ft | 526 kts | 93° |
| 2026-04-22 18:05 | 38.33076 | -115.07619 | 37112 ft | 523 kts | 94° |
| 2026-04-22 18:06 | 38.32978 | -114.98304 | 37125 ft | 528 kts | 93° |
| 2026-04-22 18:06 | 38.32898 | -114.89021 | 37092 ft | 524 kts | 94° |
| 2026-04-22 18:07 | 38.32778 | -114.79823 | 37113 ft | 523 kts | 93° |
| 2026-04-22 18:07 | 38.32626 | -114.70499 | 37075 ft | 528 kts | 94° |
| 2026-04-22 18:08 | 38.32474 | -114.61235 | 37084 ft | 523 kts | 94° |
| 2026-04-22 18:08 | 38.32328 | -114.52000 | 37102 ft | 526 kts | 93° |
| 2026-04-22 18:09 | 38.32178 | -114.42740 | 37069 ft | 524 kts | 94° |
| 2026-04-22 18:09 | 38.32019 | -114.33488 | 37102 ft | 526 kts | 94° |
| 2026-04-22 18:10 | 38.31856 | -114.24214 | 37081 ft | 525 kts | 95° |
| 2026-04-22 18:10 | 38.31680 | -114.14964 | 37119 ft | 526 kts | 94° |
| 2026-04-22 18:11 | 38.31484 | -114.05682 | 37100 ft | 526 kts | 95° |
| 2026-04-22 18:11 | 38.31303 | -113.96439 | 37087 ft | 526 kts | 94° |
| 2026-04-22 18:12 | 38.31137 | -113.87126 | 37107 ft | 529 kts | 94° |
| 2026-04-22 18:12 | 38.30969 | -113.79367 | 37097 ft | 525 kts | 95° |
| 2026-04-22 18:13 | 38.30709 | -113.68532 | 37086 ft | 527 kts | 95° |
| 2026-04-22 18:13 | 38.30482 | -113.59310 | 37085 ft | 525 kts | 94° |
| 2026-04-22 18:14 | 38.30292 | -113.50015 | 37118 ft | 527 kts | 94° |
| 2026-04-22 18:14 | 38.30062 | -113.40749 | 37098 ft | 527 kts | 95° |
| 2026-04-22 18:15 | 38.29802 | -113.31438 | 37089 ft | 525 kts | 95° |
| 2026-04-22 18:15 | 38.29555 | -113.22183 | 37101 ft | 526 kts | 95° |
| 2026-04-22 18:16 | 38.29287 | -113.12923 | 37090 ft | 526 kts | 95° |
| 2026-04-22 18:16 | 38.29053 | -113.03626 | 37092 ft | 526 kts | 95° |
| 2026-04-22 18:17 | 38.28757 | -112.94353 | 37088 ft | 527 kts | 96° |
| 2026-04-22 18:17 | 38.28465 | -112.85085 | 37085 ft | 525 kts | 95° |
| 2026-04-22 18:18 | 38.28184 | -112.75828 | 37101 ft | 523 kts | 94° |
| 2026-04-22 18:18 | 38.27882 | -112.66637 | 37098 ft | 525 kts | 95° |
| 2026-04-22 18:19 | 38.27601 | -112.57358 | 37087 ft | 526 kts | 94° |
| 2026-04-22 18:19 | 38.27295 | -112.48093 | 37084 ft | 524 kts | 95° |
| 2026-04-22 18:20 | 38.26979 | -112.38784 | 37101 ft | 523 kts | 96° |
| 2026-04-22 18:20 | 38.26677 | -112.29520 | 37123 ft | 525 kts | 96° |
| 2026-04-22 18:21 | 38.26358 | -112.20322 | 37131 ft | 524 kts | 96° |
| 2026-04-22 18:21 | 38.26007 | -112.11111 | 37126 ft | 520 kts | 96° |
| 2026-04-22 18:22 | 38.25686 | -112.01909 | 37144 ft | 524 kts | 95° |
| 2026-04-22 18:22 | 38.25385 | -111.92632 | 37139 ft | 523 kts | 95° |
| 2026-04-22 18:23 | 38.25023 | -111.83395 | 37137 ft | 522 kts | 96° |
| 2026-04-22 18:23 | 38.24612 | -111.74181 | 37120 ft | 523 kts | 95° |
| 2026-04-22 18:24 | 38.24047 | -111.60438 | 37102 ft | 519 kts | 96° |
| 2026-04-22 18:25 | 38.23450 | -111.46656 | 37097 ft | 523 kts | 95° |
| 2026-04-22 18:25 | 38.23074 | -111.37415 | 37101 ft | 523 kts | 95° |
| 2026-04-22 18:26 | 38.22478 | -111.23624 | 37091 ft | 519 kts | 95° |
| 2026-04-22 18:26 | 38.22106 | -111.14417 | 37098 ft | 523 kts | 96° |
| 2026-04-22 18:27 | 38.21727 | -111.05221 | 37087 ft | 521 kts | 95° |
| 2026-04-22 18:27 | 38.21317 | -110.96015 | 37069 ft | 523 kts | 96° |
| 2026-04-22 18:28 | 38.20848 | -110.86863 | 37081 ft | 517 kts | 97° |
| 2026-04-22 18:28 | 38.20363 | -110.77777 | 37077 ft | 521 kts | 96° |
| 2026-04-22 18:29 | 38.19900 | -110.68619 | 37079 ft | 521 kts | 96° |
| 2026-04-22 18:29 | 38.19447 | -110.59379 | 37074 ft | 521 kts | 96° |
| 2026-04-22 18:30 | 38.18758 | -110.45731 | 37074 ft | 518 kts | 96° |
| 2026-04-22 18:31 | 38.18296 | -110.36524 | 37086 ft | 522 kts | 95° |
| 2026-04-22 18:31 | 38.17821 | -110.27403 | 37081 ft | 518 kts | 97° |
| 2026-04-22 18:32 | 38.17334 | -110.18287 | 37083 ft | 519 kts | 97° |
| 2026-04-22 18:32 | 38.16856 | -110.09188 | 37089 ft | 515 kts | 97° |
| 2026-04-22 18:33 | 38.16391 | -110.00108 | 37084 ft | 519 kts | 96° |
| 2026-04-22 18:33 | 38.15949 | -109.91022 | 37089 ft | 516 kts | 97° |
| 2026-04-22 18:34 | 38.15461 | -109.81957 | 37099 ft | 519 kts | 97° |
| 2026-04-22 18:34 | 38.14922 | -109.72859 | 37098 ft | 515 kts | 97° |
| 2026-04-22 18:35 | 38.14345 | -109.63792 | 37110 ft | 519 kts | 98° |
| 2026-04-22 18:35 | 38.13799 | -109.54726 | 37107 ft | 514 kts | 97° |
| 2026-04-22 18:36 | 38.13276 | -109.45705 | 37119 ft | 518 kts | 96° |
| 2026-04-22 18:36 | 38.12731 | -109.36619 | 37121 ft | 518 kts | 97° |
| 2026-04-22 18:37 | 38.12174 | -109.27531 | 37119 ft | 514 kts | 98° |
| 2026-04-22 18:37 | 38.11611 | -109.18507 | 37118 ft | 517 kts | 97° |
| 2026-04-22 18:38 | 38.11040 | -109.09427 | 37123 ft | 514 kts | 98° |
| 2026-04-22 18:38 | 38.10569 | -109.00426 | 37119 ft | 518 kts | 94° |
| 2026-04-22 18:39 | 38.11382 | -108.91421 | 37143 ft | 518 kts | 71° |
| 2026-04-22 18:39 | 38.12645 | -108.87090 | 37150 ft | 516 kts | 64° |
| 2026-04-22 18:39 | 38.15685 | -108.78921 | 37153 ft | 515 kts | 60° |
| 2026-04-22 18:40 | 38.18979 | -108.70850 | 37163 ft | 512 kts | 59° |
| 2026-04-22 18:40 | 38.22232 | -108.62884 | 37164 ft | 512 kts | 59° |
| 2026-04-22 18:41 | 38.25452 | -108.54803 | 37156 ft | 515 kts | 60° |
| 2026-04-22 18:41 | 38.28642 | -108.46637 | 37173 ft | 512 kts | 60° |
| 2026-04-22 18:42 | 38.31771 | -108.38564 | 37186 ft | 514 kts | 60° |
| 2026-04-22 18:42 | 38.34914 | -108.30439 | 37216 ft | 510 kts | 60° |
| 2026-04-22 18:43 | 38.38041 | -108.22312 | 37228 ft | 515 kts | 62° |
| 2026-04-22 18:43 | 38.41171 | -108.14164 | 37220 ft | 510 kts | 60° |
| 2026-04-22 18:44 | 38.44294 | -108.06065 | 37217 ft | 512 kts | 61° |
| 2026-04-22 18:44 | 38.47467 | -107.97903 | 37144 ft | 514 kts | 62° |
| 2026-04-22 18:45 | 38.50521 | -107.89732 | 37090 ft | 508 kts | 63° |
| 2026-04-22 18:45 | 38.53569 | -107.81589 | 37130 ft | 509 kts | 61° |
| 2026-04-22 18:46 | 38.56650 | -107.73493 | 37190 ft | 506 kts | 62° |
| 2026-04-22 18:46 | 38.59701 | -107.65386 | 37229 ft | 505 kts | 62° |
| 2026-04-22 18:47 | 38.62728 | -107.57312 | 37260 ft | 505 kts | 62° |
| 2026-04-22 18:47 | 38.65734 | -107.49200 | 37268 ft | 505 kts | 61° |
| 2026-04-22 18:48 | 38.68720 | -107.41202 | 37419 ft | 500 kts | 62° |
| 2026-04-22 18:48 | 38.70213 | -107.37220 | 37314 ft | 497 kts | 62° |
| 2026-04-22 18:48 | 38.71702 | -107.33208 | 37286 ft | 493 kts | 63° |
| 2026-04-22 18:49 | 38.74681 | -107.25322 | 37274 ft | 498 kts | 63° |
| 2026-04-22 18:49 | 38.77720 | -107.17408 | 37285 ft | 495 kts | 62° |
| 2026-04-22 18:50 | 38.80684 | -107.09500 | 37281 ft | 492 kts | 63° |
| 2026-04-22 18:50 | 38.83604 | -107.01633 | 37291 ft | 489 kts | 62° |
| 2026-04-22 18:51 | 38.86546 | -106.93800 | 37314 ft | 487 kts | 63° |
| 2026-04-22 18:51 | 38.89412 | -106.86062 | 37262 ft | 487 kts | 62° |
| 2026-04-22 18:53 | 38.91259 | -106.81082 | 37235 ft | 485 kts | 63° |
| 2026-04-22 18:53 | 38.92690 | -106.77221 | 36833 ft | 482 kts | 63° |
| 2026-04-22 18:53 | 38.94134 | -106.73383 | 36261 ft | 481 kts | 62° |
| 2026-04-22 18:54 | 38.95591 | -106.69486 | 35772 ft | 478 kts | 63° |
| 2026-04-22 18:54 | 38.97007 | -106.65650 | 35274 ft | 476 kts | 63° |
| 2026-04-22 18:54 | 38.98406 | -106.61821 | 34770 ft | 474 kts | 63° |
| 2026-04-22 18:54 | 38.99781 | -106.58045 | 34262 ft | 472 kts | 62° |
| 2026-04-22 18:55 | 39.01167 | -106.54229 | 33746 ft | 471 kts | 63° |
| 2026-04-22 18:55 | 39.02546 | -106.50450 | 33247 ft | 468 kts | 63° |
| 2026-04-22 18:55 | 39.03922 | -106.46693 | 32747 ft | 466 kts | 62° |
| 2026-04-22 18:55 | 39.05303 | -106.42922 | 32238 ft | 464 kts | 62° |
| 2026-04-22 18:56 | 39.06670 | -106.39181 | 31737 ft | 462 kts | 63° |
| 2026-04-22 18:56 | 39.08024 | -106.35469 | 31219 ft | 461 kts | 62° |
| 2026-04-22 18:56 | 39.09386 | -106.31737 | 30697 ft | 459 kts | 64° |
| 2026-04-22 18:56 | 39.10727 | -106.28048 | 30195 ft | 456 kts | 64° |
| 2026-04-22 18:57 | 39.12064 | -106.24367 | 29684 ft | 454 kts | 64° |
| 2026-04-22 18:57 | 39.13399 | -106.20698 | 29178 ft | 451 kts | 63° |
| 2026-04-22 18:57 | 39.14717 | -106.17049 | 28682 ft | 448 kts | 63° |
| 2026-04-22 18:57 | 39.16025 | -106.13419 | 28166 ft | 446 kts | 64° |
| 2026-04-22 18:58 | 39.17318 | -106.09838 | 27667 ft | 444 kts | 64° |
| 2026-04-22 18:58 | 39.18605 | -106.06259 | 27241 ft | 439 kts | 64° |
| 2026-04-22 18:58 | 39.19877 | -106.02718 | 27188 ft | 426 kts | 64° |
| 2026-04-22 18:58 | 39.21084 | -105.99356 | 27186 ft | 416 kts | 64° |
| 2026-04-22 18:59 | 39.22303 | -105.95943 | 27195 ft | 419 kts | 65° |
| 2026-04-22 18:59 | 39.23523 | -105.92529 | 27201 ft | 426 kts | 65° |
| 2026-04-22 18:59 | 39.24762 | -105.89075 | 27193 ft | 425 kts | 64° |
| 2026-04-22 18:59 | 39.26015 | -105.85608 | 27180 ft | 422 kts | 64° |
| 2026-04-22 19:00 | 39.27254 | -105.82189 | 27207 ft | 424 kts | 65° |
| 2026-04-22 19:00 | 39.28490 | -105.78762 | 27188 ft | 426 kts | 64° |
| 2026-04-22 19:00 | 39.29747 | -105.75277 | 27057 ft | 420 kts | 65° |
| 2026-04-22 19:00 | 39.30972 | -105.71859 | 26650 ft | 417 kts | 65° |
| 2026-04-22 19:01 | 39.32172 | -105.68486 | 26150 ft | 417 kts | 65° |
| 2026-04-22 19:01 | 39.33396 | -105.65069 | 25680 ft | 416 kts | 65° |
| 2026-04-22 19:01 | 39.34613 | -105.61723 | 25324 ft | 411 kts | 65° |
| 2026-04-22 19:01 | 39.35833 | -105.58377 | 24860 ft | 410 kts | 65° |
| 2026-04-22 19:02 | 39.37031 | -105.55084 | 24472 ft | 407 kts | 65° |
| 2026-04-22 19:02 | 39.38228 | -105.51793 | 24018 ft | 405 kts | 65° |
| 2026-04-22 19:02 | 39.39428 | -105.48501 | 23614 ft | 402 kts | 65° |
| 2026-04-22 19:02 | 39.40613 | -105.45270 | 23295 ft | 396 kts | 66° |
| 2026-04-22 19:03 | 39.41848 | -105.42129 | 22836 ft | 395 kts | 61° |
| 2026-04-22 19:03 | 39.43294 | -105.39083 | 22387 ft | 394 kts | 56° |
| 2026-04-22 19:03 | 39.44837 | -105.36176 | 22023 ft | 391 kts | 54° |
| 2026-04-22 19:03 | 39.46401 | -105.33337 | 21674 ft | 386 kts | 54° |
| 2026-04-22 19:04 | 39.47971 | -105.30518 | 21230 ft | 385 kts | 54° |
| 2026-04-22 19:04 | 39.49521 | -105.27732 | 20809 ft | 383 kts | 54° |
| 2026-04-22 19:04 | 39.51062 | -105.24938 | 20372 ft | 382 kts | 54° |
| 2026-04-22 19:04 | 39.52583 | -105.22152 | 19976 ft | 379 kts | 54° |
| 2026-04-22 19:05 | 39.54083 | -105.19401 | 19685 ft | 373 kts | 55° |
| 2026-04-22 19:05 | 39.55577 | -105.16652 | 19221 ft | 373 kts | 55° |
| 2026-04-22 19:05 | 39.57069 | -105.13887 | 18776 ft | 372 kts | 54° |
| 2026-04-22 19:05 | 39.58516 | -105.11189 | 18572 ft | 363 kts | 55° |
| 2026-04-22 19:06 | 39.59945 | -105.08515 | 18356 ft | 356 kts | 54° |
| 2026-04-22 19:06 | 39.61345 | -105.05902 | 17939 ft | 356 kts | 55° |
| 2026-04-22 19:06 | 39.62760 | -105.03257 | 17528 ft | 355 kts | 54° |
| 2026-04-22 19:07 | 39.65538 | -104.98074 | 16855 ft | 348 kts | 54° |
| 2026-04-22 19:07 | 39.66921 | -104.95489 | 16559 ft | 343 kts | 54° |
| 2026-04-22 19:07 | 39.68270 | -104.92968 | 16170 ft | 342 kts | 55° |
| 2026-04-22 19:07 | 39.69623 | -104.90449 | 15781 ft | 341 kts | 55° |
| 2026-04-22 19:08 | 39.70977 | -104.87944 | 15468 ft | 337 kts | 53° |
| 2026-04-22 19:08 | 39.72476 | -104.85640 | 15097 ft | 334 kts | 41° |
| 2026-04-22 19:08 | 39.74420 | -104.84089 | 14744 ft | 326 kts | 14° |
| 2026-04-22 19:08 | 39.76643 | -104.83686 | 14370 ft | 317 kts | 356° |
| 2026-04-22 19:09 | 39.78825 | -104.83768 | 14160 ft | 308 kts | 353° |
| 2026-04-22 19:09 | 39.80896 | -104.83903 | 14121 ft | 296 kts | 354° |
| 2026-04-22 19:09 | 39.82938 | -104.83984 | 14064 ft | 284 kts | 355° |
| 2026-04-22 19:09 | 39.84887 | -104.83999 | 13879 ft | 279 kts | 356° |
| 2026-04-22 19:10 | 39.86828 | -104.83984 | 13555 ft | 279 kts | 356° |
| 2026-04-22 19:10 | 39.88761 | -104.83963 | 13251 ft | 278 kts | 357° |
| 2026-04-22 19:10 | 39.90697 | -104.83948 | 12991 ft | 275 kts | 356° |
| 2026-04-22 19:10 | 39.92611 | -104.83926 | 12691 ft | 274 kts | 357° |
| 2026-04-22 19:11 | 39.94495 | -104.83895 | 12400 ft | 273 kts | 356° |
| 2026-04-22 19:11 | 39.96417 | -104.83878 | 12113 ft | 272 kts | 356° |
| 2026-04-22 19:11 | 39.98287 | -104.83867 | 11845 ft | 269 kts | 356° |
| 2026-04-22 19:11 | 40.00171 | -104.83857 | 11508 ft | 271 kts | 357° |
| 2026-04-22 19:12 | 40.02044 | -104.83840 | 11224 ft | 270 kts | 357° |
| 2026-04-22 19:12 | 40.03913 | -104.83812 | 10956 ft | 267 kts | 357° |
| 2026-04-22 19:12 | 40.05782 | -104.83784 | 10647 ft | 268 kts | 357° |
| 2026-04-22 19:12 | 40.07635 | -104.83759 | 10376 ft | 266 kts | 357° |
| 2026-04-22 19:13 | 40.09489 | -104.83739 | 10051 ft | 267 kts | 357° |
| 2026-04-22 19:13 | 40.11344 | -104.83723 | 9810 ft | 264 kts | 357° |
| 2026-04-22 19:13 | 40.13152 | -104.83704 | 9538 ft | 262 kts | 357° |
| 2026-04-22 19:13 | 40.14977 | -104.83604 | 9191 ft | 266 kts | 8° |
| 2026-04-22 19:14 | 40.16666 | -104.82643 | 9027 ft | 262 kts | 41° |
| 2026-04-22 19:14 | 40.17737 | -104.80765 | 9041 ft | 258 kts | 69° |
| 2026-04-22 19:14 | 40.18243 | -104.78510 | 9036 ft | 265 kts | 83° |
| 2026-04-22 19:14 | 40.18187 | -104.76143 | 9032 ft | 258 kts | 111° |
| 2026-04-22 19:15 | 40.17683 | -104.74773 | 9059 ft | 244 kts | 130° |
| 2026-04-22 19:15 | 40.16069 | -104.72926 | 9049 ft | 228 kts | 153° |
| 2026-04-22 19:15 | 40.14632 | -104.72073 | 9043 ft | 223 kts | 169° |
| 2026-04-22 19:15 | 40.13137 | -104.71710 | 8900 ft | 213 kts | 177° |
| 2026-04-22 19:16 | 40.11667 | -104.71448 | 8441 ft | 218 kts | 175° |
| 2026-04-22 19:16 | 40.10160 | -104.71146 | 8087 ft | 214 kts | 173° |
| 2026-04-22 19:16 | 40.08747 | -104.70734 | 8017 ft | 200 kts | 166° |
| 2026-04-22 19:16 | 40.07518 | -104.70033 | 8029 ft | 184 kts | 163° |
| 2026-04-22 19:17 | 40.06331 | -104.69684 | 8058 ft | 173 kts | 179° |
| 2026-04-22 19:17 | 40.05106 | -104.69605 | 8021 ft | 179 kts | 181° |
| 2026-04-22 19:17 | 40.03842 | -104.69558 | 7960 ft | 185 kts | 182° |
| 2026-04-22 19:17 | 40.02535 | -104.69497 | 7736 ft | 185 kts | 180° |
| 2026-04-22 19:18 | 40.01259 | -104.69460 | 7488 ft | 181 kts | 182° |
| 2026-04-22 19:18 | 40.00030 | -104.69468 | 7289 ft | 172 kts | 181° |
| 2026-04-22 19:18 | 39.98877 | -104.69450 | 7019 ft | 158 kts | 182° |
| 2026-04-22 19:18 | 39.97848 | -104.69449 | 6840 ft | 139 kts | 184° |
| 2026-04-22 19:19 | 39.96915 | -104.69515 | 6681 ft | 131 kts | 184° |
| 2026-04-22 19:19 | 39.95985 | -104.69530 | 6544 ft | 136 kts | 180° |
| 2026-04-22 19:19 | 39.94979 | -104.69532 | 6389 ft | 146 kts | 184° |
| 2026-04-22 19:19 | 39.93962 | -104.69569 | 6131 ft | 147 kts | 183° |
| 2026-04-22 19:20 | 39.92984 | -104.69572 | 5973 ft | 136 kts | 181° |
| 2026-04-22 19:20 | 39.92040 | -104.69559 | 5836 ft | 133 kts | 183° |
| 2026-04-22 19:20 | 39.91074 | -104.69598 | 5680 ft | 141 kts | 186° |
| 2026-04-22 19:20 | 39.90056 | -104.69679 | 5473 ft | 143 kts | 180° |
| 2026-04-22 19:21 | 39.89090 | -104.69603 | 5355 ft | 128 kts | 177° |
| 2026-04-22 19:21 | 39.88241 | -104.69627 | 5325 ft | 117 kts | 182° |
| 2026-04-22 19:21 | 39.87582 | -104.69658 | 5298 ft | 72 kts | 171° |
| 2026-04-22 19:21 | 39.87142 | -104.69673 | 5298 ft | 51 kts | 179° |
| 2026-04-22 19:22 | 39.86863 | -104.69647 | 5289 ft | 33 kts | 166° |
| 2026-04-22 19:22 | 39.86688 | -104.69541 | 5288 ft | 25 kts | 153° |
| 2026-04-22 19:22 | 39.86539 | -104.69441 | 5288 ft | 22 kts | 151° |
| 2026-04-22 19:22 | 39.86402 | -104.69353 | 5290 ft | 20 kts | 152° |
| 2026-04-22 19:23 | 39.86290 | -104.69267 | 5293 ft | 17 kts | 149° |
| 2026-04-22 19:23 | 39.86194 | -104.69199 | 5295 ft | 14 kts | 153° |
| 2026-04-22 19:23 | 39.86118 | -104.69147 | 5298 ft | 10 kts | 146° |
| 2026-04-22 19:23 | 39.86086 | -104.69106 | 5300 ft | 5 kts | 129° |
| 2026-04-22 19:24 | 39.86046 | -104.69031 | 5304 ft | 15 kts | 108° |
| 2026-04-22 19:24 | 39.86035 | -104.68907 | 5311 ft | 8 kts | 93° |
| 2026-04-22 19:24 | 39.86034 | -104.68852 | 5314 ft | 5 kts | 90° |
| 2026-04-22 19:24 | 39.86033 | -104.68711 | 5321 ft | 21 kts | 91° |
| 2026-04-22 19:25 | 39.86033 | -104.68544 | 5329 ft | 15 kts | 89° |
| 2026-04-22 19:25 | 39.86034 | -104.68448 | 5335 ft | 5 kts | 90° |
| 2026-04-22 19:25 | 39.86034 | -104.68424 | 5337 ft | 0 kts | 90° |
| 2026-04-22 19:25 | 39.86034 | -104.68416 | 5337 ft | 5 kts | 90° |
| 2026-04-22 19:26 | 39.86033 | -104.68340 | 5341 ft | 5 kts | 92° |
| 2026-04-22 19:26 | 39.86031 | -104.68310 | 5343 ft | 5 kts | 93° |
| 2026-04-22 19:26 | 39.86015 | -104.68218 | 5349 ft | 13 kts | 135° |
| 2026-04-22 19:26 | 39.85881 | -104.68197 | 5353 ft | 27 kts | 184° |
| 2026-04-22 19:27 | 39.85677 | -104.68174 | 5352 ft | 28 kts | 150° |
| 2026-04-22 19:27 | 39.85602 | -104.67982 | 5364 ft | 20 kts | 92° |
| 2026-04-22 19:27 | 39.85598 | -104.67835 | 5373 ft | 15 kts | 92° |
| 2026-04-22 19:27 | 39.85589 | -104.67657 | 5385 ft | 25 kts | 93° |
| 2026-04-22 19:28 | 39.85577 | -104.67399 | 5400 ft | 26 kts | 91° |
| 2026-04-22 19:28 | 39.85536 | -104.67320 | 5404 ft | 5 kts | 161° |
| 2026-04-22 19:28 | 39.85491 | -104.67339 | 5401 ft | 8 kts | 193° |
| 2026-04-22 19:28 | 39.85447 | -104.67328 | 5401 ft | 3 kts | 148° |
| 2026-04-22 19:29 | 39.85440 | -104.67323 | 5401 ft | 0 kts | 147° |